createdAt,value
2023-03-11T00:00:26.732Z,50.00
2023-03-11T00:02:28.188Z,49.98
2023-03-11T00:04:29.583Z,49.69
2023-03-11T00:06:30.962Z,49.51
2023-03-11T00:08:32.289Z,49.74
2023-03-11T00:10:33.629Z,49.84
2023-03-11T00:12:35.042Z,50.41
2023-03-11T00:14:36.379Z,49.97
2023-03-11T00:16:37.839Z,50.51
2023-03-11T00:18:39.225Z,50.59
2023-03-11T00:20:40.610Z,50.83
2023-03-11T00:22:41.987Z,50.89
2023-03-11T00:24:43.317Z,50.87
2023-03-11T00:26:44.697Z,51.11
2023-03-11T00:28:46.017Z,51.33
2023-03-11T00:30:47.405Z,51.91
2023-03-11T00:32:48.824Z,51.45
2023-03-11T00:34:50.176Z,52.18
2023-03-11T00:36:51.540Z,51.76
2023-03-11T00:38:52.992Z,51.98
2023-03-11T00:40:54.372Z,52.47
2023-03-11T00:42:55.714Z,52.56
2023-03-11T00:44:57.178Z,52.58
2023-03-11T00:46:58.580Z,53.02
2023-03-11T00:48:59.913Z,53.07
2023-03-11T00:51:01.245Z,52.95
2023-03-11T00:53:02.649Z,53.12
2023-03-11T00:55:04.000Z,53.39
2023-03-11T00:57:05.342Z,53.76
2023-03-11T00:59:06.721Z,53.56
2023-03-11T01:01:08.355Z,53.72
2023-03-11T01:03:09.829Z,53.36
2023-03-11T01:05:11.178Z,53.80
2023-03-11T01:07:12.498Z,54.05
2023-03-11T01:09:13.862Z,54.02
2023-03-11T01:11:15.212Z,53.61
2023-03-11T01:13:16.577Z,53.60
2023-03-11T01:15:17.915Z,54.10
2023-03-11T01:17:19.259Z,53.66
2023-03-11T01:19:20.628Z,54.12
2023-03-11T01:21:21.968Z,54.57
2023-03-11T01:23:23.296Z,54.17
2023-03-11T01:25:24.687Z,54.23
2023-03-11T01:27:26.058Z,54.40
2023-03-11T01:29:27.381Z,54.47
2023-03-11T01:31:28.816Z,54.20
2023-03-11T01:33:30.231Z,54.07
2023-03-11T01:35:31.656Z,54.27
2023-03-11T01:37:33.052Z,54.15
2023-03-11T01:39:35.246Z,54.21
2023-03-11T01:41:36.576Z,54.15
2023-03-11T01:43:40.997Z,53.59
2023-03-11T01:45:42.404Z,53.76
2023-03-11T01:47:43.817Z,53.65
2023-03-11T01:49:45.148Z,53.54
2023-03-11T01:51:47.001Z,53.31
2023-03-11T01:53:48.377Z,53.41
2023-03-11T01:55:49.797Z,53.43
2023-03-11T01:57:51.176Z,53.70
2023-03-11T01:59:52.579Z,53.22
2023-03-11T02:01:53.982Z,53.56
2023-03-11T02:03:55.335Z,53.17
2023-03-11T02:05:56.677Z,53.52
2023-03-11T02:07:58.085Z,53.56
2023-03-11T02:09:59.455Z,53.81
2023-03-11T02:12:00.806Z,53.82
2023-03-11T02:14:02.185Z,54.19
2023-03-11T02:16:03.672Z,53.66
2023-03-11T02:18:05.117Z,54.32
2023-03-11T02:20:06.513Z,54.28
2023-03-11T02:22:07.849Z,54.49
2023-03-11T02:24:09.279Z,54.15
2023-03-11T02:26:10.661Z,54.44
2023-03-11T02:28:12.003Z,54.62
2023-03-11T02:30:13.330Z,54.44
2023-03-11T02:32:14.741Z,54.56
2023-03-11T02:34:16.165Z,54.52
2023-03-11T02:36:17.493Z,54.44
2023-03-11T02:38:18.972Z,55.03
2023-03-11T02:40:20.310Z,55.49
2023-03-11T02:42:21.697Z,55.12
2023-03-11T02:44:23.037Z,54.94
2023-03-11T02:46:24.439Z,54.87
2023-03-11T02:48:25.869Z,55.28
2023-03-11T02:50:27.218Z,55.01
2023-03-11T02:52:28.552Z,54.79
2023-03-11T02:54:29.872Z,55.00
2023-03-11T02:56:31.212Z,55.07
2023-03-11T02:58:32.636Z,55.42
2023-03-11T03:00:34.588Z,54.99
2023-03-11T03:02:35.968Z,55.03
2023-03-11T03:04:37.301Z,54.64
2023-03-11T03:06:38.682Z,54.87
2023-03-11T03:08:40.078Z,54.58
2023-03-11T03:10:41.440Z,54.71
2023-03-11T03:12:42.856Z,54.34
2023-03-11T03:14:44.237Z,54.56
2023-03-11T03:16:45.708Z,54.62
2023-03-11T03:18:47.197Z,54.96
2023-03-11T03:20:48.571Z,54.99
2023-03-11T03:22:50.462Z,54.91
2023-03-11T03:24:52.884Z,55.29
2023-03-11T03:26:54.193Z,54.84
2023-03-11T03:28:55.596Z,55.26
2023-03-11T03:30:56.972Z,55.09
2023-03-11T03:32:58.315Z,55.33
2023-03-11T03:34:59.819Z,55.38
2023-03-11T03:37:01.160Z,55.37
2023-03-11T03:39:02.592Z,55.25
2023-03-11T03:41:03.942Z,55.27
2023-03-11T03:43:05.343Z,55.17
2023-03-11T03:45:06.685Z,55.52
2023-03-11T03:47:08.204Z,55.52
2023-03-11T03:49:09.574Z,55.35
2023-03-11T03:51:10.912Z,55.26
2023-03-11T03:53:12.297Z,55.20
2023-03-11T03:55:13.634Z,55.64
2023-03-11T03:57:14.961Z,55.19
2023-03-11T03:59:16.345Z,55.07
2023-03-11T04:01:17.766Z,55.20
2023-03-11T04:03:19.167Z,55.25
2023-03-11T04:05:20.573Z,55.08
2023-03-11T04:07:21.944Z,55.51
2023-03-11T04:09:23.360Z,55.84
2023-03-11T04:11:24.704Z,55.13
2023-03-11T04:13:26.101Z,55.21
2023-03-11T04:15:27.430Z,55.56
2023-03-11T04:17:28.788Z,55.23
2023-03-11T04:19:30.168Z,55.18
2023-03-11T04:21:31.504Z,55.23
2023-03-11T04:23:32.927Z,55.01
2023-03-11T04:25:34.428Z,55.23
2023-03-11T04:27:35.783Z,55.19
2023-03-11T04:29:37.164Z,55.34
2023-03-11T04:31:38.499Z,55.54
2023-03-11T04:33:39.823Z,55.29
2023-03-11T04:35:41.253Z,55.03
2023-03-11T04:37:42.584Z,55.14
2023-03-11T04:39:43.964Z,54.55
2023-03-11T04:41:45.360Z,54.46
2023-03-11T04:43:46.696Z,54.81
2023-03-11T04:45:48.028Z,54.45
2023-03-11T04:47:49.414Z,55.03
2023-03-11T04:49:50.763Z,54.50
2023-03-11T04:51:52.103Z,55.04
2023-03-11T04:53:53.585Z,55.41
2023-03-11T04:55:55.048Z,55.26
2023-03-11T04:57:56.425Z,55.39
2023-03-11T04:59:57.750Z,55.67
2023-03-11T05:01:59.121Z,55.57
2023-03-11T05:04:00.544Z,55.73
2023-03-11T05:06:01.880Z,55.65
2023-03-11T05:08:03.262Z,55.24
2023-03-11T05:10:04.623Z,55.21
2023-03-11T05:12:06.067Z,55.64
2023-03-11T05:14:07.486Z,55.53
2023-03-11T05:16:08.943Z,55.41
2023-03-11T05:18:10.408Z,55.29
2023-03-11T05:20:11.812Z,55.68
2023-03-11T05:22:13.198Z,55.39
2023-03-11T05:24:14.592Z,55.31
2023-03-11T05:26:15.952Z,55.41
2023-03-11T05:28:17.280Z,55.34
2023-03-11T05:30:18.783Z,55.45
2023-03-11T05:32:20.164Z,55.19
2023-03-11T05:37:05.913Z,55.54
2023-03-11T05:39:07.237Z,55.61
2023-03-11T05:41:08.572Z,55.36
2023-03-11T05:43:10.033Z,55.44
2023-03-11T05:45:11.478Z,55.07
2023-03-11T05:47:12.827Z,55.49
2023-03-11T05:49:14.170Z,55.33
2023-03-11T05:51:15.572Z,55.41
2023-03-11T05:53:16.910Z,55.44
2023-03-11T05:55:18.260Z,55.57
2023-03-11T05:57:19.642Z,55.59
2023-03-11T05:59:21.117Z,55.89
2023-03-11T06:01:22.439Z,55.76
2023-03-11T06:03:23.807Z,55.95
2023-03-11T06:05:25.195Z,55.48
2023-03-11T06:07:26.573Z,55.50
2023-03-11T06:09:28.072Z,55.90
2023-03-11T06:11:29.408Z,55.80
2023-03-11T06:13:30.749Z,55.95
2023-03-11T06:15:32.078Z,55.70
2023-03-11T06:17:33.462Z,55.74
2023-03-11T06:19:34.841Z,55.64
2023-03-11T06:21:39.203Z,55.88
2023-03-11T06:23:40.771Z,56.02
2023-03-11T06:25:42.180Z,56.07
2023-03-11T06:27:44.643Z,55.61
2023-03-11T06:29:48.357Z,55.68
2023-03-11T06:31:56.141Z,55.98
2023-03-11T06:33:57.600Z,55.87
2023-03-11T06:35:59.060Z,56.04
2023-03-11T06:38:00.462Z,55.98
2023-03-11T06:40:01.814Z,55.91
2023-03-11T06:42:03.276Z,56.15
2023-03-11T06:44:05.034Z,55.91
2023-03-11T06:46:06.382Z,56.00
2023-03-11T06:48:07.753Z,56.28
2023-03-11T06:50:09.355Z,56.08
2023-03-11T06:52:10.712Z,55.85
2023-03-11T06:54:12.060Z,55.84
2023-03-11T06:56:13.447Z,55.50
2023-03-11T06:58:14.953Z,55.75
2023-03-11T07:00:16.525Z,55.44
2023-03-11T07:02:17.893Z,55.64
2023-03-11T07:04:19.260Z,55.63
2023-03-11T07:06:20.730Z,55.43
2023-03-11T07:08:23.109Z,55.54
2023-03-11T07:10:24.484Z,55.43
2023-03-11T07:12:25.815Z,55.60
2023-03-11T07:14:27.250Z,55.58
2023-03-11T07:16:28.599Z,55.85
2023-03-11T07:18:30.073Z,55.82
2023-03-11T07:20:31.464Z,56.10
2023-03-11T07:22:32.822Z,56.19
2023-03-11T07:24:34.144Z,56.48
2023-03-11T07:26:35.512Z,56.73
2023-03-11T07:28:36.933Z,57.08
2023-03-11T07:30:38.256Z,56.88
2023-03-11T07:32:39.684Z,56.73
2023-03-11T07:34:41.050Z,57.53
2023-03-11T07:36:42.683Z,57.07
2023-03-11T07:38:44.054Z,57.16
2023-03-11T07:40:45.387Z,56.82
2023-03-11T07:42:46.741Z,56.80
2023-03-11T07:44:48.058Z,56.94
2023-03-11T07:46:49.475Z,56.67
2023-03-11T07:48:50.798Z,56.68
2023-03-11T07:50:52.172Z,56.47
2023-03-11T07:52:56.513Z,56.32
2023-03-11T07:54:57.914Z,56.06
2023-03-11T07:56:59.300Z,56.34
2023-03-11T07:59:00.686Z,55.80
2023-03-11T08:01:03.050Z,56.15
2023-03-11T08:03:04.474Z,55.84
2023-03-11T08:05:05.842Z,55.78
2023-03-11T08:07:07.249Z,55.17
2023-03-11T08:09:09.030Z,54.93
2023-03-11T08:11:10.363Z,54.60
2023-03-11T08:13:11.741Z,54.33
2023-03-11T08:15:13.094Z,53.51
2023-03-11T08:17:14.541Z,53.85
2023-03-11T08:19:15.884Z,53.45
2023-03-11T08:21:17.246Z,53.32
2023-03-11T08:23:18.798Z,53.31
2023-03-11T08:25:20.168Z,53.71
2023-03-11T08:27:21.517Z,53.22
2023-03-11T08:29:22.973Z,53.58
2023-03-11T08:31:24.468Z,53.57
2023-03-11T08:33:25.971Z,53.74
2023-03-11T08:35:27.368Z,53.17
2023-03-11T08:37:28.841Z,53.59
2023-03-11T08:39:30.312Z,53.16
2023-03-11T08:41:31.669Z,53.20
2023-03-11T08:43:33.018Z,53.28
2023-03-11T08:45:34.575Z,53.13
2023-03-11T08:47:36.246Z,53.43
2023-03-11T08:49:37.648Z,53.55
2023-03-11T08:51:38.992Z,53.56
2023-03-11T08:53:40.402Z,53.20
2023-03-11T08:55:41.752Z,53.05
2023-03-11T08:57:43.088Z,53.50
2023-03-11T08:59:44.430Z,53.74
2023-03-11T09:01:46.954Z,45.40
2023-03-11T09:03:48.291Z,41.64
2023-03-11T09:05:49.683Z,39.84
2023-03-11T09:07:51.021Z,42.65
2023-03-11T09:09:52.468Z,43.05
2023-03-11T09:11:53.820Z,41.60
2023-03-11T09:13:55.218Z,42.18
2023-03-11T09:15:56.585Z,43.18
2023-03-11T09:17:59.670Z,44.19
2023-03-11T09:20:01.004Z,44.72
2023-03-11T09:22:02.450Z,45.34
2023-03-11T09:24:04.345Z,45.84
2023-03-11T09:26:05.711Z,45.49
2023-03-11T09:28:07.079Z,46.35
2023-03-11T09:30:08.425Z,46.42
2023-03-11T09:32:09.857Z,46.43
2023-03-11T09:34:11.226Z,47.09
2023-03-11T09:36:12.611Z,47.51
2023-03-11T09:38:14.037Z,48.00
2023-03-11T09:40:15.388Z,47.99
2023-03-11T09:42:16.723Z,48.42
2023-03-11T09:44:18.133Z,48.33
2023-03-11T09:46:19.498Z,48.52
2023-03-11T09:48:22.719Z,48.36
2023-03-11T09:50:24.314Z,48.71
2023-03-11T09:52:28.811Z,48.57
2023-03-11T09:54:30.728Z,49.32
2023-03-11T09:56:32.118Z,48.99
2023-03-11T09:58:33.471Z,49.33
2023-03-11T10:00:34.810Z,48.98
2023-03-11T10:02:36.346Z,49.46
2023-03-11T10:04:37.764Z,49.59
2023-03-11T10:06:39.113Z,49.79
2023-03-11T10:08:40.498Z,49.57
2023-03-11T10:10:41.851Z,49.74
2023-03-11T10:12:43.212Z,49.56
2023-03-11T10:14:44.560Z,50.07
2023-03-11T10:16:46.081Z,50.09
2023-03-11T10:18:47.871Z,50.06
2023-03-11T10:20:49.252Z,49.88
2023-03-11T10:22:50.603Z,50.23
2023-03-11T10:24:51.920Z,50.02
2023-03-11T10:26:53.296Z,49.97
2023-03-11T10:28:54.661Z,50.33
2023-03-11T10:30:55.984Z,49.94
2023-03-11T10:32:57.384Z,50.35
2023-03-11T10:34:58.787Z,50.20
2023-03-11T10:37:02.178Z,50.12
2023-03-11T10:39:03.575Z,50.56
2023-03-11T10:41:04.912Z,50.13
2023-03-11T10:43:06.326Z,50.10
2023-03-11T10:45:07.676Z,50.29
2023-03-11T10:47:12.301Z,50.55
2023-03-11T10:49:16.600Z,50.50
2023-03-11T10:51:22.415Z,50.42
2023-03-11T10:53:24.044Z,50.19
2023-03-11T10:55:25.504Z,50.24
2023-03-11T10:57:26.980Z,49.99
2023-03-11T10:59:28.364Z,50.46
2023-03-11T11:01:29.858Z,50.09
2023-03-11T11:03:31.340Z,50.18
2023-03-11T11:05:35.762Z,50.17
2023-03-11T11:07:37.132Z,50.19
2023-03-11T11:09:38.472Z,50.41
2023-03-11T11:11:39.875Z,50.13
2023-03-11T11:13:41.221Z,50.01
2023-03-11T11:15:42.614Z,50.45
2023-03-11T11:17:46.716Z,49.89
2023-03-11T11:19:48.093Z,49.89
2023-03-11T11:21:49.562Z,49.92
2023-03-11T11:23:52.595Z,49.56
2023-03-11T11:25:55.084Z,49.90
2023-03-11T11:27:56.441Z,49.56
2023-03-11T11:29:57.855Z,49.72
2023-03-11T11:31:59.210Z,49.87
2023-03-11T11:34:00.551Z,49.94
2023-03-11T11:36:04.600Z,50.05
2023-03-11T11:38:05.989Z,50.02
2023-03-11T11:40:11.663Z,50.07
2023-03-11T11:42:13.068Z,49.90
2023-03-11T11:44:14.447Z,50.23
2023-03-11T11:46:15.879Z,50.26
2023-03-11T11:48:17.446Z,49.99
2023-03-11T11:50:18.763Z,50.21
2023-03-11T11:52:20.732Z,50.01
2023-03-11T11:54:22.221Z,49.83
2023-03-11T11:56:23.596Z,50.09
2023-03-11T11:58:24.935Z,49.94
2023-03-11T12:00:28.252Z,49.59
2023-03-11T12:02:29.696Z,49.89
2023-03-11T12:04:37.275Z,49.73
2023-03-11T12:06:38.665Z,50.13
2023-03-11T12:08:40.068Z,50.07
2023-03-11T12:10:41.700Z,50.01
2023-03-11T12:12:43.052Z,50.17
2023-03-11T12:14:44.380Z,50.60
2023-03-11T12:16:45.704Z,50.12
2023-03-11T12:18:47.204Z,49.90
2023-03-11T12:20:48.808Z,49.76
2023-03-11T12:22:50.308Z,49.42
2023-03-11T12:24:51.726Z,49.70
2023-03-11T12:26:55.854Z,50.04
2023-03-11T12:29:00.227Z,49.85
2023-03-11T12:31:01.633Z,49.99
2023-03-11T12:33:03.053Z,50.18
2023-03-11T12:35:05.457Z,49.90
2023-03-11T12:37:06.784Z,49.91
2023-03-11T12:39:08.586Z,49.90
2023-03-11T12:41:10.054Z,50.18
2023-03-11T12:43:11.427Z,50.23
2023-03-11T12:45:12.829Z,50.21
2023-03-11T12:47:14.154Z,49.66
2023-03-11T12:49:18.359Z,49.84
2023-03-11T12:51:22.852Z,49.89
2023-03-11T12:53:24.172Z,49.57
2023-03-11T12:55:25.691Z,49.43
2023-03-11T12:57:27.086Z,48.77
2023-03-11T12:59:28.453Z,49.26
2023-03-11T13:01:29.963Z,49.46
2023-03-11T13:03:31.333Z,49.29
2023-03-11T13:05:32.689Z,49.84
2023-03-11T13:07:34.042Z,49.50
2023-03-11T13:09:35.367Z,49.62
2023-03-11T13:11:36.765Z,49.80
2023-03-11T13:13:38.177Z,50.20
2023-03-11T13:15:41.796Z,49.66
2023-03-11T13:17:43.161Z,50.12
2023-03-11T13:19:44.534Z,49.90
2023-03-11T13:21:45.951Z,50.68
2023-03-11T13:23:47.278Z,49.17
2023-03-11T13:25:49.990Z,49.82
2023-03-11T13:27:51.342Z,48.93
2023-03-11T13:29:52.735Z,48.59
2023-03-11T13:31:54.209Z,49.45
2023-03-11T13:33:55.631Z,49.24
2023-03-11T13:35:57.264Z,49.11
2023-03-11T13:37:58.662Z,48.98
2023-03-11T13:39:59.986Z,48.41
2023-03-11T13:42:02.273Z,48.47
2023-03-11T13:44:04.394Z,49.67
2023-03-11T13:46:05.825Z,50.69
2023-03-11T13:48:07.230Z,50.81
2023-03-11T13:50:08.579Z,51.04
2023-03-11T13:52:09.965Z,51.30
2023-03-11T13:54:11.380Z,51.40
2023-03-11T13:56:12.721Z,51.65
2023-03-11T13:58:14.094Z,51.56
2023-03-11T14:00:19.960Z,51.67
2023-03-11T14:02:21.366Z,52.26
2023-03-11T14:04:22.781Z,52.42
2023-03-11T14:06:24.123Z,52.01
2023-03-11T14:08:26.855Z,51.84
2023-03-11T14:10:28.254Z,52.15
2023-03-11T14:12:29.580Z,52.44
2023-03-11T14:14:30.959Z,52.85
2023-03-11T14:16:35.260Z,52.67
2023-03-11T14:18:36.995Z,52.35
2023-03-11T14:20:38.367Z,52.27
2023-03-11T14:22:39.723Z,52.37
2023-03-11T14:24:41.147Z,52.59
2023-03-11T14:26:48.759Z,52.68
2023-03-11T14:28:50.114Z,52.48
2023-03-11T14:30:51.529Z,52.56
2023-03-11T14:32:52.880Z,52.79
2023-03-11T14:34:54.261Z,52.76
2023-03-11T14:36:57.179Z,52.83
2023-03-11T14:38:58.552Z,53.13
2023-03-11T14:41:00.470Z,53.16
2023-03-11T14:43:02.325Z,53.26
2023-03-11T14:45:05.102Z,53.43
2023-03-11T14:47:06.479Z,53.17
2023-03-11T14:49:08.001Z,53.17
2023-03-11T14:51:09.361Z,52.84
2023-03-11T14:53:10.697Z,52.71
2023-03-11T14:55:12.081Z,52.77
2023-03-11T14:57:13.441Z,52.84
2023-03-11T14:59:14.769Z,52.90
2023-03-11T15:01:16.491Z,52.61
2023-03-11T15:03:20.950Z,52.33
2023-03-11T15:05:25.133Z,52.72
2023-03-11T15:07:26.504Z,52.42
2023-03-11T15:09:27.860Z,52.59
2023-03-11T15:11:29.276Z,52.37
2023-03-11T15:13:30.666Z,51.73
2023-03-11T15:15:32.027Z,52.45
2023-03-11T15:17:40.226Z,52.09
2023-03-11T15:19:45.088Z,52.58
2023-03-11T15:21:46.468Z,52.27
2023-03-11T15:23:50.596Z,52.28
2023-03-11T15:25:51.984Z,52.11
2023-03-11T15:27:53.304Z,52.86
2023-03-11T15:29:54.680Z,53.16
2023-03-11T15:31:57.316Z,52.72
2023-03-11T15:34:01.338Z,52.67
2023-03-11T15:36:02.751Z,52.75
2023-03-11T15:38:04.109Z,53.03
2023-03-11T15:40:07.813Z,53.08
2023-03-11T15:42:09.784Z,53.11
2023-03-11T15:44:11.165Z,52.69
2023-03-11T15:46:12.602Z,53.33
2023-03-11T15:48:14.012Z,53.28
2023-03-11T15:50:24.234Z,53.31
2023-03-11T15:52:26.838Z,53.01
2023-03-11T15:54:28.222Z,52.96
2023-03-11T15:56:33.293Z,53.37
2023-03-11T15:58:34.664Z,53.12
2023-03-11T16:00:35.981Z,53.10
2023-03-11T16:04:38.735Z,52.95
2023-03-11T16:06:40.189Z,43.92
2023-03-11T16:08:41.560Z,39.00
2023-03-11T16:10:42.894Z,45.07
2023-03-11T16:12:44.309Z,44.76
2023-03-11T16:14:46.049Z,45.18
2023-03-11T16:16:47.385Z,45.64
2023-03-11T16:18:51.708Z,46.02
2023-03-11T16:20:53.067Z,46.41
2023-03-11T16:22:57.537Z,47.77
2023-03-11T16:24:59.444Z,46.19
2023-03-11T16:27:00.780Z,46.30
2023-03-11T16:29:16.483Z,47.79
2023-03-11T16:31:20.316Z,46.99
2023-03-11T16:33:21.766Z,47.22
2023-03-11T16:35:23.593Z,47.83
2023-03-11T16:37:24.989Z,48.04
2023-03-11T16:39:26.304Z,48.33
2023-03-11T16:41:27.641Z,48.37
2023-03-11T16:43:29.568Z,48.40
2023-03-11T16:45:31.016Z,48.18
2023-03-11T16:47:32.375Z,48.41
2023-03-11T16:49:33.712Z,48.76
2023-03-11T16:51:35.086Z,48.79
2023-03-11T16:53:36.455Z,47.66
2023-03-11T16:55:40.741Z,48.41
2023-03-11T16:57:42.052Z,49.47
2023-03-11T16:59:43.433Z,49.25
2023-03-11T17:01:44.884Z,49.79
2023-03-11T17:03:48.806Z,51.01
2023-03-11T17:05:50.264Z,50.22
2023-03-11T17:07:51.578Z,50.29
2023-03-11T17:09:52.960Z,50.00
2023-03-11T17:11:57.429Z,50.40
2023-03-11T17:14:15.179Z,50.78
2023-03-11T17:16:17.563Z,50.70
2023-03-11T17:18:18.917Z,51.16
2023-03-11T17:20:23.129Z,51.10
2023-03-11T17:22:27.461Z,51.49
2023-03-11T17:24:28.814Z,51.36
2023-03-11T17:26:31.633Z,51.47
2023-03-11T17:28:32.983Z,52.48
2023-03-11T17:30:36.889Z,51.15
2023-03-11T17:32:38.794Z,51.29
2023-03-11T17:34:40.200Z,52.00
2023-03-11T17:36:41.547Z,52.20
2023-03-11T17:38:42.875Z,52.43
2023-03-11T17:40:44.197Z,52.20
2023-03-11T17:42:45.589Z,51.81
2023-03-11T17:44:51.696Z,51.92
2023-03-11T17:46:53.574Z,51.78
2023-03-11T17:48:54.986Z,51.28
2023-03-11T17:50:56.370Z,51.50
2023-03-11T17:52:57.891Z,51.09
2023-03-11T17:54:59.309Z,51.18
2023-03-11T17:57:00.682Z,50.72
2023-03-11T17:59:02.022Z,50.64
2023-03-11T18:01:06.880Z,50.69
2023-03-11T18:03:08.280Z,50.28
2023-03-11T18:05:09.617Z,50.65
2023-03-11T18:07:10.953Z,50.16
2023-03-11T18:09:12.337Z,50.18
2023-03-11T18:11:13.665Z,49.85
2023-03-11T18:13:14.996Z,49.78
2023-03-11T18:15:19.360Z,49.90
2023-03-11T18:17:21.487Z,49.78
2023-03-11T18:19:25.905Z,49.71
2023-03-11T18:21:27.270Z,49.16
2023-03-11T18:23:29.653Z,49.13
2023-03-11T18:25:30.984Z,48.94
2023-03-11T18:27:32.353Z,48.56
2023-03-11T18:29:33.697Z,48.26
2023-03-11T18:31:35.120Z,48.06
2023-03-11T18:33:36.519Z,47.88
2023-03-11T18:35:37.983Z,47.48
2023-03-11T18:37:39.357Z,48.93
2023-03-11T18:39:40.734Z,47.78
2023-03-11T18:41:42.800Z,47.23
2023-03-11T18:43:44.125Z,47.29
2023-03-11T18:45:45.506Z,46.85
2023-03-11T18:47:46.880Z,46.49
2023-03-11T18:49:48.349Z,46.63
2023-03-11T18:51:49.709Z,46.78
2023-03-11T18:53:51.045Z,47.89
2023-03-11T18:55:52.509Z,48.11
2023-03-11T18:57:53.918Z,47.72
2023-03-11T18:59:55.443Z,48.18
2023-03-11T19:01:56.813Z,47.43
2023-03-11T19:04:00.924Z,48.29
2023-03-11T19:06:02.250Z,48.30
2023-03-11T19:08:03.648Z,48.49
2023-03-11T19:10:04.975Z,48.68
2023-03-11T19:12:06.341Z,48.90
2023-03-11T19:14:07.737Z,48.95
2023-03-11T19:16:09.119Z,48.62
2023-03-11T19:18:10.441Z,49.23
2023-03-11T19:20:12.874Z,50.31
2023-03-11T19:22:14.223Z,50.13
2023-03-11T19:24:15.623Z,50.17
2023-03-11T19:26:20.950Z,50.36
2023-03-11T19:28:22.436Z,50.59
2023-03-11T19:30:23.827Z,50.56
2023-03-11T19:32:25.275Z,50.48
2023-03-11T19:34:28.884Z,50.41
2023-03-11T19:36:30.334Z,51.02
2023-03-11T19:38:31.696Z,50.76
2023-03-11T19:40:33.706Z,50.82
2023-03-11T19:42:35.114Z,50.79
2023-03-11T19:44:36.738Z,50.09
2023-03-11T19:46:41.221Z,50.55
2023-03-11T19:48:45.671Z,50.87
2023-03-11T19:50:47.046Z,50.37
2023-03-11T19:52:48.479Z,50.86
2023-03-11T19:54:50.305Z,51.26
2023-03-11T19:56:51.674Z,50.81
2023-03-11T19:58:53.020Z,50.94
2023-03-11T20:00:54.372Z,50.66
2023-03-11T20:02:58.874Z,50.64
2023-03-11T20:05:00.421Z,50.83
2023-03-11T20:07:01.962Z,50.66
2023-03-11T20:09:05.960Z,50.98
2023-03-11T20:11:07.359Z,50.00
2023-03-11T20:13:08.713Z,50.29
2023-03-11T20:15:10.086Z,50.38
2023-03-11T20:17:11.467Z,50.16
2023-03-11T20:19:18.837Z,50.16
2023-03-11T20:21:20.223Z,50.25
2023-03-11T20:23:21.555Z,50.45
2023-03-11T20:25:22.931Z,50.46
2023-03-11T20:27:24.271Z,50.17
2023-03-11T20:29:25.759Z,50.80
2023-03-11T20:31:29.872Z,51.20
2023-03-11T20:33:32.319Z,50.97
2023-03-11T20:35:33.706Z,51.06
2023-03-11T20:37:35.108Z,50.79
2023-03-11T20:39:36.475Z,50.60
2023-03-11T20:41:38.156Z,51.14
2023-03-11T20:43:39.502Z,51.02
2023-03-11T20:45:40.944Z,50.82
2023-03-11T20:47:43.836Z,51.18
2023-03-11T20:49:45.244Z,51.32
2023-03-11T20:51:48.190Z,51.39
2023-03-11T20:53:49.607Z,51.75
2023-03-11T20:55:50.988Z,50.75
2023-03-11T20:57:54.496Z,51.03
2023-03-11T20:59:55.865Z,50.98
2023-03-11T21:01:57.303Z,50.84
2023-03-11T21:03:58.807Z,51.08
2023-03-11T21:06:02.947Z,50.76
2023-03-11T21:08:07.046Z,51.10
2023-03-11T21:10:08.870Z,51.35
2023-03-11T21:12:10.217Z,50.70
2023-03-11T21:14:11.668Z,50.67
2023-03-11T21:16:13.219Z,50.68
2023-03-11T21:18:14.722Z,50.29
2023-03-11T21:20:16.784Z,50.00
2023-03-11T21:22:18.218Z,49.48
2023-03-11T21:24:19.722Z,48.40
2023-03-11T21:26:21.119Z,49.78
2023-03-11T21:28:22.619Z,49.84
2023-03-11T21:30:24.098Z,50.82
2023-03-11T21:32:25.544Z,49.96
2023-03-11T21:34:27.105Z,49.86
2023-03-11T21:36:28.788Z,50.29
2023-03-11T21:38:30.338Z,50.06
2023-03-11T21:40:31.796Z,50.81
2023-03-11T21:42:33.119Z,49.79
2023-03-11T21:44:34.666Z,49.76
2023-03-11T21:46:38.841Z,49.31
2023-03-11T21:48:40.236Z,48.95
2023-03-11T21:50:44.060Z,49.93
2023-03-11T21:52:45.511Z,49.20
2023-03-11T21:54:46.928Z,48.81
2023-03-11T21:56:48.369Z,48.60
2023-03-11T21:58:49.944Z,49.05
2023-03-11T22:00:51.578Z,49.12
2023-03-11T22:02:52.995Z,49.00
2023-03-11T22:04:54.622Z,48.85
2023-03-11T22:06:57.311Z,48.96
2023-03-11T22:08:58.900Z,48.67
2023-03-11T22:11:00.376Z,49.22
2023-03-11T22:13:01.840Z,49.59
2023-03-11T22:15:03.217Z,49.53
2023-03-11T22:17:04.727Z,49.28
2023-03-11T22:19:08.925Z,48.58
2023-03-11T22:21:12.945Z,49.10
2023-03-11T22:23:14.318Z,49.04
2023-03-11T22:25:15.690Z,49.23
2023-03-11T22:27:17.035Z,49.45
2023-03-11T22:29:18.405Z,49.15
2023-03-11T22:31:19.826Z,49.13
2023-03-11T22:33:21.186Z,49.48
2023-03-11T22:35:22.530Z,49.08
2023-03-11T22:37:23.880Z,49.58
2023-03-11T22:39:26.758Z,49.57
2023-03-11T22:41:28.134Z,48.87
2023-03-11T22:43:29.459Z,49.34
2023-03-11T22:45:30.790Z,49.58
2023-03-11T22:47:32.169Z,49.67
2023-03-11T22:49:36.258Z,49.76
2023-03-11T22:51:37.610Z,50.08
2023-03-11T22:53:38.963Z,49.47
2023-03-11T22:55:40.377Z,49.41
2023-03-11T22:57:44.752Z,49.35
2023-03-11T22:59:46.097Z,49.35
2023-03-11T23:01:50.357Z,49.14
2023-03-11T23:03:51.739Z,49.90
2023-03-11T23:05:53.141Z,49.35
2023-03-11T23:07:54.490Z,49.87
2023-03-11T23:09:55.837Z,49.84
2023-03-11T23:11:57.198Z,50.07
2023-03-11T23:13:59.760Z,50.00
2023-03-11T23:16:01.088Z,49.83
2023-03-11T23:18:02.478Z,50.05
2023-03-11T23:20:04.059Z,49.93
2023-03-11T23:22:05.492Z,50.15
2023-03-11T23:24:07.085Z,49.76
2023-03-11T23:26:08.653Z,49.64
2023-03-11T23:28:09.992Z,49.43
2023-03-11T23:30:11.327Z,49.49
2023-03-11T23:32:12.672Z,49.50
2023-03-11T23:34:14.001Z,49.46
2023-03-11T23:36:15.375Z,49.89
2023-03-11T23:38:16.721Z,46.25
2023-03-11T23:40:18.070Z,35.46
2023-03-11T23:42:25.949Z,34.82
2023-03-11T23:44:27.707Z,40.50
2023-03-11T23:46:29.070Z,40.72
2023-03-11T23:48:30.491Z,41.18
2023-03-11T23:50:31.842Z,41.54
2023-03-11T23:52:33.171Z,42.61
2023-03-11T23:54:34.517Z,42.61
2023-03-11T23:56:35.844Z,42.97
2023-03-11T23:58:37.193Z,43.41
